Time;durP1;ratioP1;P1;durP2;ratioP2;P2;SDS_P1;SDS_P2;PMS_P1;PMS_P2;Temp;Humidity;BMP_temperature;BMP_pressure;BME280_temperature;BME280_humidity;BME280_pressure;Samples;Min_cycle;Max_cycle;Signal;HPM_P1;HPM_P2
2022/08/25 00:01:27;;;;;;;13.10;5.90;;;;;;;18.34;81.35;99088.39;86111;1312;22629;-78
2022/08/25 00:04:09;;;;;;;20.90;6.40;;;;;;;18.34;81.35;99091.21;85892;1315;24492;-79
2022/08/25 00:06:57;;;;;;;;;;;;;;;;;;;;;
2022/08/25 00:09:53;;;;;;;26.70;6.80;;;;;;;18.34;81.43;99092.98;86300;1315;24516;-78
2022/08/25 00:12:57;;;;;;;28.60;7.50;;;;;;;18.35;81.46;99089.76;86060;1312;22613;-78
2022/08/25 00:15:53;;;;;;;16.00;6.00;;;;;;;18.35;81.48;99086.19;85328;1321;22634;-78
2022/08/25 00:18:43;;;;;;;;;;;;;;;;;;;;;
2022/08/25 00:21:47;;;;;;;21.20;6.50;;;;;;;18.34;81.56;99085.70;85722;1312;22621;-78
2022/08/25 00:24:48;;;;;;;19.60;5.90;;;;;;;18.33;81.54;99088.98;85841;1315;23019;-78
2022/08/25 00:27:40;;;;;;;19.30;6.20;;;;;;;18.32;81.48;99090.91;85640;1316;22790;-78
2022/08/25 00:30:13;;;;;;;18.80;6.80;;;;;;;18.28;81.62;99087.81;85909;1312;22881;-78
2022/08/25 00:33:07;;;;;;;22.00;6.80;;;;;;;18.29;81.66;99090.23;85797;1315;22611;-78
2022/08/25 00:35:39;;;;;;;;;;;;;;;;;;;;;
2022/08/25 00:38:33;;;;;;;;;;;;;;;;;;;;;
2022/08/25 00:47:59;;;;;;;28.90;7.30;;;;;;;18.27;81.73;99078.81;85318;1318;24468;-78
2022/08/25 00:51:02;;;;;;;27.90;7.10;;;;;;;18.26;81.87;99079.92;85363;1318;22758;-78
2022/08/25 00:54:06;;;;;;;22.50;6.60;;;;;;;18.25;81.78;99080.05;86409;1312;22558;-79
2022/08/25 00:57:08;;;;;;;26.10;6.60;;;;;;;18.16;81.75;99069.33;86254;1312;22693;-79
2022/08/25 01:09:12;;;;;;;;;;;;;;;;;;;;;
2022/08/25 01:12:05;;;;;;;22.00;5.80;;;;;;;18.07;81.75;99078.79;88941;1281;23977;-79
2022/08/25 01:15:01;;;;;;;27.60;6.40;;;;;;;18.00;81.87;99082.84;88367;1284;22570;-78
2022/08/25 01:17:33;;;;;;;;;;;;;;;;;;;;;
2022/08/25 01:20:37;;;;;;;19.50;6.10;;;;;;;17.94;81.95;99078.67;84275;1281;5680958;-78
2022/08/25 01:23:45;;;;;;;19.80;6.60;;;;;;;17.93;82.21;99077.75;88546;1278;22629;-78
2022/08/25 01:26:45;;;;;;;24.20;6.00;;;;;;;17.93;82.24;99078.47;87427;1292;24231;-77
2022/08/25 01:32:51;;;;;;;24.60;6.30;;;;;;;17.92;82.12;99073.52;86760;1298;24270;-78
2022/08/25 01:35:53;;;;;;;30.60;7.00;;;;;;;17.91;82.13;99070.35;86704;1298;23076;-77
2022/08/25 01:38:36;;;;;;;24.50;6.40;;;;;;;17.92;82.28;99065.50;86392;1303;22583;-78
2022/08/25 01:41:27;;;;;;;36.50;7.20;;;;;;;17.93;82.25;99062.04;86422;1304;22705;-78
2022/08/25 01:44:38;;;;;;;27.50;6.70;;;;;;;17.93;82.32;99058.36;86538;1303;25476;-77
2022/08/25 01:47:39;;;;;;;31.30;6.50;;;;;;;17.87;82.17;99053.05;86080;1313;22673;-77
2022/08/25 01:50:40;;;;;;;25.30;6.90;;;;;;;17.81;82.18;99051.60;85189;1322;22563;-77
2022/08/25 01:53:47;;;;;;;23.70;6.00;;;;;;;17.76;82.19;99046.06;85202;1323;22652;-77
2022/08/25 01:56:48;;;;;;;20.40;6.20;;;;;;;17.73;82.20;99046.65;85423;1319;23104;-77
2022/08/25 01:59:41;;;;;;;25.80;6.40;;;;;;;17.71;82.40;99038.27;85209;1322;22770;-78
2022/08/25 02:05:43;;;;;;;29.90;6.70;;;;;;;17.74;82.53;99034.83;85929;1313;24306;-78
2022/08/25 02:08:35;;;;;;;32.10;6.90;;;;;;;17.75;82.48;99037.44;85807;1315;22621;-78
2022/08/25 02:11:10;;;;;;;28.00;7.00;;;;;;;17.73;82.46;99024.61;86065;1310;23006;-78
2022/08/25 02:13:40;;;;;;;40.10;6.10;;;;;;;17.71;82.47;99028.53;86200;1310;22623;-81
2022/08/25 02:16:36;;;;;;;22.40;7.30;;;;;;;17.73;82.52;99033.73;86546;1303;24348;-78
2022/08/25 02:19:32;;;;;;;;;;;;;;;;;;;;;
2022/08/25 02:22:42;;;;;;;25.00;6.60;;;;;;;17.73;82.59;99026.62;86513;1304;22619;-78
2022/08/25 02:25:46;;;;;;;29.60;6.70;;;;;;;17.70;82.60;99031.23;86511;1303;22616;-77
2022/08/25 02:28:36;;;;;;;24.20;6.70;;;;;;;17.68;82.66;99027.98;87070;1295;22708;-77
2022/08/25 02:31:39;;;;;;;37.00;7.60;;;;;;;17.67;82.66;99026.48;87150;1293;22740;-77
2022/08/25 02:34:49;;;;;;;23.70;6.80;;;;;;;17.66;82.55;99023.39;86674;1300;23150;-78
2022/08/25 02:43:42;;;;;;;;;;;;;;;;;;;;;
2022/08/25 02:46:44;;;;;;;28.50;7.50;;;;;;;17.61;82.81;99020.73;85251;1320;25433;-79
2022/08/25 02:52:16;;;;;;;25.50;7.00;;;;;;;17.59;82.75;99025.86;84575;1329;23770;-77
2022/08/25 02:55:17;;;;;;;26.30;6.50;;;;;;;17.58;82.79;99028.67;84491;1331;24564;-77
2022/08/25 02:58:06;;;;;;;;;;;;;;;;;;;;;
2022/08/25 03:01:12;;;;;;;25.50;6.90;;;;;;;17.52;82.70;99021.40;84656;1329;22617;-79
2022/08/25 03:03:53;;;;;;;25.00;5.70;;;;;;;17.48;82.79;99025.61;84968;1324;22650;-78
2022/08/25 03:06:27;;;;;;;;;;;;;;;;;;;;;
2022/08/25 03:12:13;;;;;;;;;;;;;;;;;;;;;
2022/08/25 03:15:17;;;;;;;33.20;7.30;;;;;;;17.38;82.86;99020.04;85313;1315;22646;-78
2022/08/25 03:17:58;;;;;;;27.20;6.10;;;;;;;17.34;82.87;99022.80;85509;1315;25251;-78
2022/08/25 03:21:02;;;;;;;30.10;7.50;;;;;;;17.31;82.85;99020.15;85717;1315;22754;-77
2022/08/25 03:24:02;;;;;;;30.60;5.90;;;;;;;17.29;82.98;99016.20;85987;1312;22773;-78
2022/08/25 03:30:20;;;;;;;56.70;6.50;;;;;;;17.28;82.94;99012.20;86689;1297;24295;-77
2022/08/25 03:32:41;;;;;;;31.30;7.10;;;;;;;17.27;82.99;99018.85;86740;1301;22857;-78
2022/08/25 03:35:51;;;;;;;17.30;6.30;;;;;;;17.26;82.99;99016.48;86784;1300;22800;-77
2022/08/25 03:38:25;;;;;;;;;;;;;;;;;;;;;
2022/08/25 03:41:27;;;;;;;;;;;;;;;;;;;;;
2022/08/25 03:44:07;;;;;;;;;;;;;;;;;;;;;
2022/08/25 03:47:24;;;;;;;19.10;6.80;;;;;;;17.21;83.15;99012.58;85922;1312;22614;-79
2022/08/25 03:50:25;;;;;;;22.50;7.00;;;;;;;17.21;83.18;99015.98;86523;1313;22784;-79
2022/08/25 03:53:26;;;;;;;32.30;7.60;;;;;;;17.20;83.16;99009.97;86215;1308;22625;-78
2022/08/25 03:56:27;;;;;;;32.50;7.20;;;;;;;17.17;83.18;99006.11;86253;1309;22759;-78
2022/08/25 03:59:07;;;;;;;24.50;6.80;;;;;;;17.14;83.18;99009.65;86727;1312;22766;-79
2022/08/25 04:02:10;;;;;;;34.20;7.80;;;;;;;17.15;83.22;99011.20;86297;1312;22585;-78
2022/08/25 04:04:40;;;;;;;29.20;8.70;;;;;;;17.12;83.28;99008.38;85805;1316;24294;-78
2022/08/25 04:07:42;;;;;;;32.70;9.20;;;;;;;17.16;83.33;99012.92;85672;1316;23368;-79
2022/08/25 04:10:43;;;;;;;23.20;7.80;;;;;;;17.15;83.27;99011.79;86154;1318;22656;-79
2022/08/25 04:16:46;;;;;;;31.10;8.10;;;;;;;17.14;83.28;99006.15;86871;1309;24243;-79
2022/08/25 04:20:15;;;;;;;31.60;7.80;;;;;;;17.15;83.38;99007.53;86653;1308;24192;-79
2022/08/25 04:22:59;;;;;;;;;;;;;;;;;;;;;
2022/08/25 04:25:24;;;;;;;;;;;;;;;;;;;;;
2022/08/25 04:27:56;;;;;;;;;;;;;;;;;;;;;
2022/08/25 04:30:29;;;;;;;31.70;8.00;;;;;;;17.18;83.44;99010.64;86649;1308;22856;-79
2022/08/25 04:33:42;;;;;;;;;;;;;;;;;;;;;
2022/08/25 04:39:16;;;;;;;;;;;;;;;;;;;;;
2022/08/25 04:45:26;;;;;;;24.10;7.80;;;;;;;17.32;83.72;99022.61;86650;1309;22726;-79
2022/08/25 04:57:39;;;;;;;31.20;8.80;;;;;;;17.54;83.82;99014.02;87794;1289;23611;-79
2022/08/25 05:00:45;;;;;;;33.90;9.40;;;;;;;17.56;83.79;99009.02;87202;1306;22624;-80
2022/08/25 05:03:31;;;;;;;25.70;8.40;;;;;;;17.65;83.91;99009.56;87769;1300;24322;-80
2022/08/25 05:06:33;;;;;;;24.70;8.00;;;;;;;17.70;83.90;99008.48;83077;1299;22709;-79
2022/08/25 05:09:36;;;;;;;24.20;8.00;;;;;;;17.75;83.97;99008.44;87986;1299;22604;-80
2022/08/25 05:12:40;;;;;;;45.30;9.00;;;;;;;17.80;83.97;99009.29;87725;1299;25450;-79
2022/08/25 05:22:14;;;;;;;20.80;7.60;;;;;;;17.96;83.99;99001.91;86591;1308;24422;-79
2022/08/25 05:25:21;;;;;;;21.60;8.70;;;;;;;18.02;84.05;98998.27;85733;1319;22684;-78
2022/08/25 05:28:15;;;;;;;29.40;9.00;;;;;;;18.06;84.09;98994.05;85269;1329;22630;-80
2022/08/25 05:30:48;;;;;;;35.40;9.70;;;;;;;18.15;84.03;98999.51;85726;1329;22625;-79
2022/08/25 05:36:20;;;;;;;22.50;8.40;;;;;;;18.28;84.11;99003.48;85067;1332;24344;-78
2022/08/25 05:42:36;;;;;;;28.90;8.60;;;;;;;18.40;84.06;98996.67;85904;1319;25440;-78
2022/08/25 05:45:36;;;;;;;;;;;;;;;;;;;;;
2022/08/25 05:49:09;;;;;;;33.10;8.10;;;;;;;18.59;84.02;98999.77;86616;1312;556105;-79
2022/08/25 05:51:20;;;;;;;40.60;8.10;;;;;;;18.61;84.05;98988.72;89513;1284;22703;-80
2022/08/25 05:53:58;;;;;;;35.20;8.70;;;;;;;18.71;84.10;98996.46;89302;1284;22671;-79
2022/08/25 05:56:55;;;;;;;37.50;8.10;;;;;;;18.80;84.14;98997.67;87876;1298;22745;-79
2022/08/25 06:00:01;;;;;;;44.40;8.80;;;;;;;18.89;84.17;98999.50;88068;1297;22612;-79
2022/08/25 06:03:21;;;;;;;37.50;8.40;;;;;;;18.96;84.02;98995.20;84688;1290;5514046;-80
2022/08/25 06:05:39;;;;;;;;;;;;;;;;;;;;;
2022/08/25 06:11:53;;;;;;;34.10;8.20;;;;;;;19.23;84.09;98996.70;87049;1309;556289;-81
2022/08/25 06:14:29;;;;;;;38.70;8.20;;;;;;;19.30;84.10;98999.81;89248;1286;22589;-80
2022/08/25 06:17:33;;;;;;;38.70;8.80;;;;;;;19.39;84.03;98997.30;89343;1286;22544;-80
2022/08/25 06:20:03;;;;;;;;;;;;;;;;;;;;;
2022/08/25 06:23:03;;;;;;;35.60;6.90;;;;;;;19.61;84.17;98999.41;88602;1292;22872;-79
2022/08/25 06:26:02;;;;;;;;;;;;;;;;;;;;;
2022/08/25 06:28:55;;;;;;;47.10;9.60;;;;;;;19.85;84.01;99005.01;88629;1295;22600;-81
2022/08/25 06:31:49;;;;;;;38.00;7.80;;;;;;;19.93;83.89;99002.73;88520;1294;22872;-80
2022/08/25 06:34:28;;;;;;;38.80;7.50;;;;;;;20.01;83.93;99002.08;89511;1282;23056;-79
2022/08/25 06:37:33;;;;;;;56.00;7.80;;;;;;;20.12;83.94;99002.66;89577;1282;22593;-81
2022/08/25 06:40:35;;;;;;;42.00;7.80;;;;;;;20.26;83.79;99004.98;88590;1293;22620;-80
2022/08/25 06:43:36;;;;;;;49.20;9.20;;;;;;;20.33;83.70;99007.08;88104;1299;22589;-80
2022/08/25 06:46:17;;;;;;;39.80;7.60;;;;;;;20.44;83.66;99004.58;88249;1297;22824;-78
2022/08/25 06:48:46;;;;;;;47.80;7.80;;;;;;;20.53;83.52;99007.27;87558;1300;22599;-79
2022/08/25 06:51:50;;;;;;;41.30;7.90;;;;;;;20.63;83.42;99008.06;88114;1297;22709;-80
2022/08/25 06:54:30;;;;;;;44.20;8.30;;;;;;;20.73;83.45;99010.00;87354;1300;22848;-80
2022/08/25 06:57:23;;;;;;;;;;;;;;;;;;;;;
2022/08/25 07:00:06;;;;;;;;;;;;;;;;;;;;;
2022/08/25 07:03:00;;;;;;;;;;;;;;;;;;;;;
2022/08/25 07:05:59;;;;;;;72.50;8.90;;;;;;;21.19;83.20;99009.25;87796;1294;22550;-79
2022/08/25 07:08:12;;;;;;;;;;;;;;;;;;;;;
2022/08/25 07:10:52;;;;;;;45.50;7.80;;;;;;;21.35;82.96;99008.81;88001;1294;22514;-80
2022/08/25 07:13:26;;;;;;;;;;;;;;;;;;;;;
2022/08/25 07:15:51;;;;;;;;;;;;;;;;;;;;;
2022/08/25 07:18:24;;;;;;;43.10;7.90;;;;;;;21.61;82.72;99006.64;87846;1288;22809;-79
2022/08/25 07:21:15;;;;;;;44.10;8.10;;;;;;;21.67;82.53;99006.64;88504;1281;23737;-78
2022/08/25 07:24:25;;;;;;;41.00;7.70;;;;;;;21.76;82.66;99005.96;88875;1281;22556;-79
2022/08/25 07:27:11;;;;;;;49.80;8.10;;;;;;;21.88;82.43;99003.79;88638;1282;23354;-78
2022/08/25 07:29:31;;;;;;;54.70;8.50;;;;;;;21.98;82.03;99004.60;88609;1282;24361;-78
2022/08/25 07:32:25;;;;;;;;;;;;;;;;;;;;;
2022/08/25 07:40:34;;;;;;;44.30;7.60;;;;;;;22.20;81.92;99010.93;88009;1287;24280;-78
2022/08/25 07:43:19;;;;;;;56.30;9.00;;;;;;;22.25;81.93;99011.16;88232;1288;22728;-78
2022/08/25 07:45:29;;;;;;;63.90;8.60;;;;;;;22.31;81.80;99014.86;88289;1288;22614;-78
2022/08/25 07:47:55;;;;;;;48.80;8.30;;;;;;;22.39;81.79;99012.95;87917;1288;22544;-76
2022/08/25 07:50:58;;;;;;;54.00;8.50;;;;;;;22.48;81.81;99012.63;88056;1287;22583;-76
2022/08/25 07:53:48;;;;;;;62.80;9.60;;;;;;;22.56;81.65;99015.40;87500;1291;23382;-75
2022/08/25 07:56:41;;;;;;;52.80;9.10;;;;;;;22.63;81.44;99015.92;87423;1295;23931;-77
2022/08/25 07:59:07;;;;;;;60.90;9.40;;;;;;;22.71;81.57;99009.60;87286;1294;25670;-74
2022/08/25 08:01:44;;;;;;;58.20;7.60;;;;;;;22.88;81.46;99012.44;87342;1295;22617;-75
2022/08/25 08:04:25;;;;;;;70.00;8.40;;;;;;;23.01;81.20;99011.45;87136;1297;22529;-76
2022/08/25 08:09:54;;;;;;;;;;;;;;;;;;;;;
2022/08/25 08:12:44;;;;;;;50.60;9.00;;;;;;;23.32;80.70;99014.23;87266;1294;23464;-75
2022/08/25 08:15:39;;;;;;;55.80;9.00;;;;;;;23.45;80.77;99011.60;87139;1294;22584;-76
2022/08/25 08:18:23;;;;;;;63.90;8.90;;;;;;;23.56;80.65;99010.68;86918;1293;22603;-76
2022/08/25 08:21:06;;;;;;;52.10;8.70;;;;;;;23.61;80.49;99009.40;86988;1291;22585;-78
2022/08/25 08:23:07;;;;;;;59.50;10.40;;;;;;;23.65;80.44;99006.17;86880;1294;22590;-74
2022/08/25 08:25:52;;;;;;;38.60;7.30;;;;;;;23.63;80.03;99004.60;86966;1294;25418;-76
2022/08/25 08:31:44;;;;;;;73.40;8.70;;;;;;;23.66;80.37;99000.77;87301;1285;22574;-76
2022/08/25 08:37:05;;;;;;;63.90;9.30;;;;;;;23.91;80.25;99001.04;87810;1285;22631;-75
2022/08/25 08:39:35;;;;;;;65.00;8.90;;;;;;;24.10;80.16;98998.23;87982;1282;22606;-75
2022/08/25 08:45:48;;;;;;;;;;;;;;;;;;;;;
2022/08/25 08:49:21;;;;;;;55.90;9.10;;;;;;;24.64;79.53;98999.57;87823;1283;25475;-75
2022/08/25 08:52:09;;;;;;;52.00;8.60;;;;;;;24.80;79.09;98995.45;87923;1283;23254;-75
2022/08/25 08:55:03;;;;;;;;;;;;;;;;;;;;;
2022/08/25 08:58:10;;;;;;;54.90;8.90;;;;;;;25.04;78.64;98997.84;87908;1283;24431;-76
2022/08/25 09:00:49;;;;;;;;;;;;;;;;;;;;;
2022/08/25 09:04:06;;;;;;;;;;;;;;;;;;;;;
2022/08/25 09:06:51;;;;;;;;;;;;;;;;;;;;;
2022/08/25 09:09:34;;;;;;;47.30;8.20;;;;;;;25.25;77.82;98997.62;87105;1289;22581;-76
2022/08/25 09:12:53;;;;;;;52.60;9.10;;;;;;;25.35;77.65;98996.48;87375;1289;22594;-74
2022/08/25 09:20:38;;;;;;;58.70;8.90;;;;;;;25.43;77.70;98992.70;85406;1312;545835;-75
2022/08/25 09:23:24;;;;;;;;;;;;;;;;;;;;;
2022/08/25 09:26:12;;;;;;;37.90;8.20;;;;;;;25.61;77.20;98993.70;87769;1288;22773;-75
2022/08/25 09:28:52;;;;;;;;;;;;;;;;;;;;;
2022/08/25 09:31:25;;;;;;;38.30;7.70;;;;;;;25.67;76.90;98986.64;88500;1277;27032;-78
2022/08/25 09:34:07;;;;;;;43.70;8.30;;;;;;;25.67;76.58;98988.38;84564;1274;5352987;-76
2022/08/25 09:36:41;;;;;;;62.60;9.10;;;;;;;25.64;76.46;98986.13;88472;1275;22573;-77
2022/08/25 09:39:04;;;;;;;63.20;9.40;;;;;;;25.64;76.57;98984.75;88105;1276;22801;-77
2022/08/25 09:41:10;;;;;;;57.50;9.50;;;;;;;25.70;76.71;98985.20;88173;1277;98302;-76
2022/08/25 09:43:54;;;;;;;45.50;8.30;;;;;;;25.83;76.71;98983.98;88479;1277;23375;-75
2022/08/25 09:46:40;;;;;;;51.30;8.60;;;;;;;25.95;76.58;98980.18;88316;1279;99163;-75
2022/08/25 09:49:15;;;;;;;44.80;8.90;;;;;;;26.09;76.39;98974.38;88080;1284;22748;-75
2022/08/25 09:51:56;;;;;;;48.90;8.80;;;;;;;26.19;76.25;98975.26;88405;1284;22555;-75
2022/08/25 09:54:30;;;;;;;72.70;9.00;;;;;;;26.30;76.02;98968.99;87490;1290;22607;-76
2022/08/25 09:56:46;;;;;;;61.00;8.40;;;;;;;26.41;75.53;98966.67;87278;1291;25429;-76
2022/08/25 09:59:29;;;;;;;46.90;8.20;;;;;;;26.47;75.66;98964.65;87172;1290;98458;-75
2022/08/25 10:01:40;;;;;;;64.00;9.20;;;;;;;26.62;75.26;98962.34;87243;1291;22957;-76
2022/08/25 10:04:18;;;;;;;;;;;;;;;;;;;;;
2022/08/25 10:06:54;;;;;;;;;;;;;;;;;;;;;
2022/08/25 10:09:47;;;;;;;43.10;8.30;;;;;;;27.02;74.66;98963.18;87249;1290;22642;-76
2022/08/25 10:11:53;;;;;;;68.00;9.40;;;;;;;27.10;74.54;98959.78;87183;1291;22829;-75
2022/08/25 10:14:44;;;;;;;49.40;8.80;;;;;;;27.19;74.64;98959.44;87066;1291;22915;-75
2022/08/25 10:17:45;;;;;;;;;;;;;;;;;;;;;
2022/08/25 10:20:14;;;;;;;68.90;9.20;;;;;;;27.42;74.50;98955.52;87369;1288;24790;-76
2022/08/25 10:22:46;;;;;;;53.40;9.20;;;;;;;27.55;74.16;98949.09;87203;1291;98876;-76
2022/08/25 10:24:57;;;;;;;52.80;9.60;;;;;;;27.61;73.80;98948.45;87260;1289;24408;-76
2022/08/25 10:27:40;;;;;;;50.40;8.00;;;;;;;27.65;73.67;98945.27;87641;1287;22736;-76
2022/08/25 10:30:10;;;;;;;36.50;8.30;;;;;;;27.71;73.62;98944.25;87207;1291;25700;-76
2022/08/25 10:32:59;;;;;;;52.10;7.40;;;;;;;27.70;73.38;98942.20;87669;1286;25696;-75
2022/08/25 10:35:40;;;;;;;68.60;8.20;;;;;;;27.66;73.13;98936.86;87708;1284;98676;-74
2022/08/25 10:38:28;;;;;;;61.10;9.70;;;;;;;27.67;72.92;98937.25;87747;1285;25393;-76
2022/08/25 10:41:08;;;;;;;47.40;8.00;;;;;;;27.62;72.83;98933.05;87804;1284;99308;-75
2022/08/25 10:43:49;;;;;;;64.80;10.10;;;;;;;27.63;72.75;98935.27;87918;1284;25519;-75
2022/08/25 10:47:01;;;;;;;51.00;8.80;;;;;;;27.64;72.81;98930.95;87317;1290;98862;-76
2022/08/25 10:49:06;;;;;;;58.40;8.40;;;;;;;27.57;72.52;98924.73;87493;1291;25737;-74
2022/08/25 10:51:57;;;;;;;48.30;8.60;;;;;;;27.63;72.72;98924.06;87362;1290;23518;-75
2022/08/25 10:54:14;;;;;;;;;;;;;;;27.69;72.33;98920.40;87223;1290;25852;-75
2022/08/25 10:56:40;;;;;;;52.20;8.40;;;;;;;27.73;72.17;98918.16;87363;1289;24137;-75
2022/08/25 10:59:50;;;;;;;65.10;8.80;;;;;;;27.68;71.30;98920.71;87281;1290;98540;-75
2022/08/25 11:02:47;;;;;;;;;;;;;;;;;;;;;
2022/08/25 11:05:41;;;;;;;63.70;8.40;;;;;;;27.76;71.30;98912.04;87091;1292;98568;-76
2022/08/25 11:08:35;;;;;;;77.50;8.30;;;;;;;27.78;71.30;98903.66;87284;1290;23212;-75
2022/08/25 11:11:23;;;;;;;;;;;;;;;;;;;;;
2022/08/25 11:13:57;;;;;;;62.80;8.70;;;;;;;27.84;70.99;98899.62;86830;1295;24320;-74
2022/08/25 11:16:48;;;;;;;51.30;7.20;;;;;;;27.92;71.00;98900.41;86746;1295;99275;-74
2022/08/25 11:19:08;;;;;;;;;;;;;;;28.05;70.87;98901.04;86374;1302;25086;-75
2022/08/25 11:21:17;;;;;;;51.70;9.10;;;;;;;28.03;70.20;98899.52;86490;1300;22612;-75
2022/08/25 11:24:09;;;;;;;;;;;;;;;;;;;;;
2022/08/25 11:26:38;;;;;;;;;;;;;;;;;;;;;
2022/08/25 11:29:22;;;;;;;44.30;7.20;;;;;;;28.11;69.50;98893.23;86815;1297;99426;-79
2022/08/25 11:31:57;;;;;;;50.80;7.50;;;;;;;28.11;69.15;98892.48;86605;1297;22798;-75
2022/08/25 11:34:10;;;;;;;41.70;8.70;;;;;;;28.16;69.47;98889.83;86513;1297;99546;-75
2022/08/25 11:36:15;;;;;;;43.10;8.30;;;;;;;28.20;69.22;98887.88;86640;1297;22816;-75
2022/08/25 11:38:59;;;;;;;57.10;8.20;;;;;;;28.24;69.60;98884.70;86684;1297;22626;-76
2022/08/25 11:41:47;;;;;;;40.00;8.60;;;;;;;28.34;69.20;98886.13;86374;1300;99341;-75
2022/08/25 11:44:49;;;;;;;40.10;7.60;;;;;;;28.36;68.66;98881.56;86587;1299;23579;-76
2022/08/25 11:47:22;;;;;;;52.50;7.70;;;;;;;28.23;68.60;98880.16;86013;1303;99602;-75
2022/08/25 11:49:55;;;;;;;76.00;8.10;;;;;;;28.18;68.75;98877.64;86471;1300;25709;-74
2022/08/25 11:52:00;;;;;;;53.40;8.60;;;;;;;28.18;68.66;98880.05;86425;1298;99503;-74
2022/08/25 11:54:29;;;;;;;60.20;8.60;;;;;;;28.17;68.55;98879.09;86496;1300;23303;-74
2022/08/25 11:56:40;;;;;;;48.10;7.90;;;;;;;28.11;68.17;98871.02;86790;1297;22999;-75
2022/08/25 11:59:00;;;;;;;;;;;;;;;;;;;;;
2022/08/25 12:02:10;;;;;;;;;;;;;;;;;;;;;
2022/08/25 12:05:01;;;;;;;48.90;7.80;;;;;;;27.89;68.22;98865.63;86894;1293;98457;-74
2022/08/25 12:07:50;;;;;;;42.50;9.00;;;;;;;27.84;67.93;98866.61;86761;1297;22581;-75
2022/08/25 12:10:33;;;;;;;62.50;9.00;;;;;;;27.76;67.62;98862.23;86244;1303;99341;-75
2022/08/25 12:12:46;;;;;;;56.70;8.30;;;;;;;27.72;67.90;98863.40;85910;1309;23957;-75
2022/08/25 12:15:07;;;;;;;52.60;8.40;;;;;;;27.73;67.81;98861.50;85980;1309;22690;-74
2022/08/25 12:17:23;;;;;;;57.10;9.00;;;;;;;27.68;67.66;98856.61;85814;1309;98694;-74
2022/08/25 12:19:49;;;;;;;70.10;8.60;;;;;;;27.65;67.45;98856.61;86092;1306;22629;-74
2022/08/25 12:21:56;;;;;;;66.00;7.90;;;;;;;27.64;67.56;98855.17;86163;1306;99252;-75
2022/08/25 12:24:34;;;;;;;65.40;8.40;;;;;;;27.62;67.47;98848.70;86530;1300;25078;-74
2022/08/25 12:27:05;;;;;;;48.30;8.10;;;;;;;27.62;67.34;98854.99;86306;1302;22672;-75
2022/08/25 12:29:40;;;;;;;55.60;9.70;;;;;;;27.58;67.47;98849.38;86325;1302;98696;-74
2022/08/25 12:32:28;;;;;;;57.30;8.80;;;;;;;27.56;67.40;98853.48;86341;1303;23416;-76
2022/08/25 12:35:17;;;;;;;44.60;8.30;;;;;;;27.55;66.56;98854.09;86306;1303;97863;-74
2022/08/25 12:37:22;;;;;;;51.60;8.50;;;;;;;27.55;66.53;98851.63;85908;1309;25337;-74
2022/08/25 12:39:55;;;;;;;53.30;8.40;;;;;;;27.56;66.32;98848.81;86302;1308;24331;-73
2022/08/25 12:42:31;;;;;;;62.60;8.70;;;;;;;27.54;66.10;98845.55;86102;1308;23430;-76
2022/08/25 12:45:15;;;;;;;37.60;7.60;;;;;;;27.57;65.89;98840.33;86064;1305;24538;-74
2022/08/25 12:47:39;;;;;;;67.60;9.40;;;;;;;27.60;65.98;98838.51;86168;1302;98626;-74
2022/08/25 12:49:50;;;;;;;46.00;7.00;;;;;;;27.62;65.67;98833.52;86441;1299;22637;-75
2022/08/25 12:52:37;;;;;;;56.80;9.30;;;;;;;27.64;65.59;98837.60;86760;1298;98819;-75
2022/08/25 12:54:53;;;;;;;64.90;9.10;;;;;;;27.62;65.13;98836.52;86714;1297;22602;-76
2022/08/25 12:57:02;;;;;;;72.40;7.90;;;;;;;27.59;65.48;98833.27;86776;1296;24273;-75
2022/08/25 13:00:17;;;;;;;79.60;9.10;;;;;;;27.56;65.32;98833.03;86580;1296;98876;-77
2022/08/25 13:03:14;;;;;;;60.60;8.60;;;;;;;27.57;65.65;98831.84;86793;1297;22785;-76
2022/08/25 13:09:11;;;;;;;;;;;;;;;;;;;;;
2022/08/25 13:11:48;;;;;;;75.70;9.00;;;;;;;27.59;65.12;98822.63;86326;1300;98038;-76
2022/08/25 13:14:42;;;;;;;68.00;8.20;;;;;;;27.56;65.00;98822.44;86810;1295;22646;-75
2022/08/25 13:16:55;;;;;;;87.70;10.20;;;;;;;27.55;65.14;98822.14;86788;1297;98885;-75
2022/08/25 13:19:14;;;;;;;67.80;9.50;;;;;;;27.57;65.47;98820.08;87574;1293;24314;-76
2022/08/25 13:21:29;;;;;;;63.20;7.70;;;;;;;27.62;65.69;98818.74;86997;1294;23227;-75
2022/08/25 13:23:54;;;;;;;69.30;9.10;;;;;;;27.66;65.21;98817.34;86935;1294;99466;-76
2022/08/25 13:26:20;;;;;;;51.70;7.80;;;;;;;27.66;64.73;98814.64;87310;1288;22891;-76
2022/08/25 13:28:50;;;;;;;50.60;9.10;;;;;;;27.66;64.73;98815.35;87141;1287;98568;-74
2022/08/25 13:30:58;;;;;;;49.70;8.10;;;;;;;27.69;64.62;98817.84;87147;1288;22659;-74
2022/08/25 13:33:19;;;;;;;63.60;8.70;;;;;;;27.68;64.69;98819.95;87402;1288;23371;-74
2022/08/25 13:35:26;;;;;;;66.70;8.60;;;;;;;27.67;64.38;98817.61;87169;1288;98824;-75
2022/08/25 13:38:11;;;;;;;77.80;9.50;;;;;;;27.66;63.98;98821.91;87256;1288;24650;-74
2022/08/25 13:40:49;;;;;;;76.90;8.40;;;;;;;27.66;64.33;98819.37;87257;1288;99555;-75
2022/08/25 13:42:56;;;;;;;69.00;7.90;;;;;;;27.65;63.83;98824.50;88174;1275;23465;-75
2022/08/25 13:45:04;;;;;;;79.20;9.10;;;;;;;27.66;63.84;98822.89;88448;1275;22599;-75
2022/08/25 13:47:39;;;;;;;51.70;7.90;;;;;;;27.67;64.25;98828.31;88276;1277;98732;-73
2022/08/25 13:50:34;;;;;;;63.00;8.30;;;;;;;27.66;63.82;98825.54;88462;1276;22678;-74
2022/08/25 13:52:47;;;;;;;68.70;7.60;;;;;;;27.68;63.34;98825.48;88180;1276;99534;-75
2022/08/25 13:55:26;;;;;;;39.00;6.80;;;;;;;27.68;63.35;98819.69;88518;1276;25399;-75
2022/08/25 13:57:49;;;;;;;69.00;7.80;;;;;;;27.66;63.36;98816.22;88091;1281;24223;-75
2022/08/25 14:00:13;;;;;;;78.50;8.90;;;;;;;27.66;63.28;98811.73;88111;1281;22707;-76
2022/08/25 14:05:08;;;;;;;48.70;8.50;;;;;;;27.65;63.02;98810.08;88014;1281;98745;-75
2022/08/25 14:07:53;;;;;;;34.00;7.10;;;;;;;27.66;63.08;98807.77;88098;1279;24222;-77
2022/08/25 14:10:02;;;;;;;63.40;8.30;;;;;;;27.67;62.81;98801.19;88049;1279;99705;-75
2022/08/25 14:12:04;;;;;;;55.10;7.10;;;;;;;27.68;62.73;98798.57;88013;1280;22738;-74
2022/08/25 14:14:38;;;;;;;;;;;;;;;;;;;;;
2022/08/25 14:16:57;;;;;;;63.90;9.00;;;;;;;27.70;62.96;98796.80;88023;1279;99007;-75
2022/08/25 14:19:00;;;;;;;61.10;7.90;;;;;;;27.70;62.83;98797.05;88171;1280;22754;-76
2022/08/25 14:21:13;;;;;;;65.40;8.30;;;;;;;27.70;62.43;98796.96;87988;1282;24655;-75
2022/08/25 14:23:55;;;;;;;55.80;8.80;;;;;;;27.72;62.49;98796.08;87903;1281;99724;-75
2022/08/25 14:26:00;;;;;;;52.20;8.00;;;;;;;27.70;62.32;98794.64;88093;1279;25466;-78
2022/08/25 14:28:17;;;;;;;46.10;7.40;;;;;;;27.67;62.09;98791.73;88030;1279;99121;-75
2022/08/25 14:30:33;;;;;;;74.40;8.30;;;;;;;27.67;61.92;98793.06;88374;1281;22723;-76
2022/08/25 14:32:35;;;;;;;57.30;8.00;;;;;;;27.65;61.63;98788.62;88158;1280;24359;-76
2022/08/25 14:34:41;;;;;;;67.20;8.00;;;;;;;27.63;61.83;98788.67;87911;1277;98753;-76
2022/08/25 14:36:47;;;;;;;51.80;8.10;;;;;;;27.61;61.79;98786.33;88508;1276;24361;-75
2022/08/25 14:38:49;;;;;;;43.60;8.30;;;;;;;27.60;61.65;98783.40;88317;1276;22802;-75
2022/08/25 14:41:42;;;;;;;65.40;8.10;;;;;;;27.59;61.52;98781.58;88371;1275;98864;-74
2022/08/25 14:43:51;;;;;;;70.50;8.90;;;;;;;27.57;61.83;98784.87;88323;1274;24155;-75
2022/08/25 14:46:14;;;;;;;72.20;8.50;;;;;;;27.56;61.64;98780.34;89043;1274;98950;-75
2022/08/25 14:48:44;;;;;;;78.10;8.10;;;;;;;27.54;61.35;98778.81;88712;1274;23381;-75
2022/08/25 14:51:15;;;;;;;;;;;;;;;;;;;;;
2022/08/25 14:53:38;;;;;;;55.90;8.50;;;;;;;27.53;61.35;98779.94;88056;1274;98954;-74
2022/08/25 14:55:52;;;;;;;55.10;9.00;;;;;;;27.52;61.07;98781.34;88661;1274;24134;-75
2022/08/25 14:57:54;;;;;;;62.20;8.50;;;;;;;27.54;61.15;98782.58;88664;1274;22614;-75
2022/08/25 14:59:57;;;;;;;73.80;9.00;;;;;;;27.54;61.06;98781.35;88480;1276;98854;-75
2022/08/25 15:02:33;;;;;;;;;;;;;;;;;;;;;
2022/08/25 15:05:21;;;;;;;50.30;8.40;;;;;;;27.55;61.18;98778.52;88334;1273;98711;-74
2022/08/25 15:10:37;;;;;;;71.20;8.20;;;;;;;27.48;61.01;98762.54;88937;1275;25435;-74
2022/08/25 15:13:14;;;;;;;75.90;9.20;;;;;;;27.52;61.06;98769.42;88965;1274;24069;-75
2022/08/25 15:16:07;;;;;;;54.00;8.80;;;;;;;27.52;60.90;98768.71;88866;1275;22833;-76
2022/08/25 15:18:32;;;;;;;60.70;8.10;;;;;;;27.51;60.80;98766.08;88837;1274;97597;-75
2022/08/25 15:21:25;;;;;;;42.80;7.40;;;;;;;27.50;60.97;98767.73;88996;1273;22598;-76
2022/08/25 15:23:47;;;;;;;;;;;;;;;;;;;;;
2022/08/25 15:26:11;;;;;;;62.30;8.00;;;;;;;27.50;60.67;98769.86;89056;1277;22608;-76